createdAt,value
2017-05-06T00:01:09.664Z,40.05
2017-05-06T00:02:19.725Z,40.05
2017-05-06T00:03:29.801Z,40.14
2017-05-06T00:04:40.187Z,40.14
2017-05-06T00:05:50.487Z,40.14
2017-05-06T00:07:00.333Z,40.14
2017-05-06T00:08:10.704Z,40.14
2017-05-06T00:09:21.096Z,40.05
2017-05-06T00:10:31.485Z,40.14
2017-05-06T00:11:41.808Z,40.14
2017-05-06T00:12:52.200Z,40.14
2017-05-06T00:14:02.586Z,40.14
2017-05-06T00:15:12.649Z,40.14
2017-05-06T00:16:23.032Z,40.24
2017-05-06T00:17:33.338Z,40.24
2017-05-06T00:18:43.710Z,40.24
2017-05-06T00:19:54.106Z,40.24
2017-05-06T00:21:04.172Z,40.14
2017-05-06T00:22:14.615Z,40.24
2017-05-06T00:23:24.933Z,40.14
2017-05-06T00:24:35.310Z,40.24
2017-05-06T00:25:45.693Z,40.14
2017-05-06T00:26:55.745Z,40.05
2017-05-06T00:28:06.138Z,40.14
2017-05-06T00:29:16.777Z,40.14
2017-05-06T00:30:27.157Z,40.05
2017-05-06T00:31:37.538Z,40.24
2017-05-06T00:32:47.924Z,40.05
2017-05-06T00:33:57.664Z,40.14
2017-05-06T00:35:07.965Z,40.14
2017-05-06T00:36:18.345Z,40.14
2017-05-06T00:37:28.740Z,40.05
2017-05-06T00:38:39.128Z,40.05
2017-05-06T00:39:49.502Z,40.24
2017-05-06T00:40:59.872Z,40.14
2017-05-06T00:42:10.257Z,40.14
2017-05-06T00:43:20.642Z,40.24
2017-05-06T00:44:30.701Z,40.24
2017-05-06T00:45:41.078Z,40.14
2017-05-06T00:46:51.432Z,40.24
2017-05-06T00:48:01.819Z,40.24
2017-05-06T00:49:11.875Z,40.24
2017-05-06T00:50:22.266Z,40.24
2017-05-06T00:51:32.328Z,40.14
2017-05-06T00:52:42.737Z,40.14
2017-05-06T00:53:53.122Z,40.24
2017-05-06T00:55:03.498Z,40.14
2017-05-06T00:56:13.563Z,40.14
2017-05-06T00:57:23.949Z,40.24
2017-05-06T00:58:34.262Z,40.14
2017-05-06T00:59:44.654Z,40.14
2017-05-06T01:00:54.716Z,40.14
2017-05-06T01:02:04.458Z,40.14
2017-05-06T01:03:14.509Z,40.24
2017-05-06T01:04:25.141Z,40.14
2017-05-06T01:05:35.530Z,40.24
2017-05-06T01:06:45.899Z,40.14
2017-05-06T01:07:56.305Z,40.24
2017-05-06T01:09:06.690Z,40.14
2017-05-06T01:10:17.321Z,40.14
2017-05-06T01:11:27.381Z,40.24
2017-05-06T01:12:37.773Z,40.24
2017-05-06T01:13:48.142Z,40.14
2017-05-06T01:14:58.522Z,40.14
2017-05-06T01:16:09.180Z,40.14
2017-05-06T01:17:19.811Z,40.24
2017-05-06T01:18:30.184Z,40.24
2017-05-06T01:19:40.562Z,40.14
2017-05-06T01:20:50.932Z,40.24
2017-05-06T01:22:01.558Z,40.24
2017-05-06T01:23:11.946Z,40.14
2017-05-06T01:24:22.319Z,40.14
2017-05-06T01:25:32.706Z,40.24
2017-05-06T01:26:43.085Z,40.24
2017-05-06T01:27:53.712Z,40.14
2017-05-06T01:29:04.100Z,40.24
2017-05-06T01:30:14.484Z,40.05
2017-05-06T01:31:24.866Z,40.14
2017-05-06T01:32:35.251Z,40.24
2017-05-06T01:33:45.901Z,40.24
2017-05-06T01:34:56.281Z,40.24
2017-05-06T01:36:06.667Z,40.24
2017-05-06T01:37:17.052Z,40.24
2017-05-06T01:38:27.119Z,40.14
2017-05-06T01:39:37.434Z,40.14
2017-05-06T01:40:47.483Z,40.05
2017-05-06T01:41:57.867Z,40.24
2017-05-06T01:43:08.242Z,40.14
2017-05-06T01:44:18.302Z,40.24
2017-05-06T01:45:28.943Z,40.05
2017-05-06T01:46:39.318Z,40.14
2017-05-06T01:47:49.394Z,40.24
2017-05-06T01:48:59.765Z,40.24
2017-05-06T01:50:10.141Z,40.14
2017-05-06T01:51:20.451Z,40.14
2017-05-06T01:52:30.509Z,40.14
2017-05-06T01:53:40.593Z,40.14
2017-05-06T01:54:50.971Z,40.14
2017-05-06T01:56:01.354Z,40.24
2017-05-06T01:57:11.988Z,40.24
2017-05-06T01:58:22.358Z,40.14
2017-05-06T01:59:32.742Z,40.14
2017-05-06T02:00:43.121Z,40.05
2017-05-06T02:01:53.505Z,40.24
2017-05-06T02:03:04.148Z,40.14
2017-05-06T02:04:14.527Z,40.14
2017-05-06T02:05:24.906Z,40.24
2017-05-06T02:06:34.973Z,40.14
2017-05-06T02:07:45.350Z,40.24
2017-05-06T02:08:55.674Z,40.24
2017-05-06T02:10:06.105Z,40.14
2017-05-06T02:11:16.478Z,40.14
2017-05-06T02:12:26.855Z,40.14
2017-05-06T02:13:37.235Z,40.14
2017-05-06T02:14:47.869Z,40.14
2017-05-06T02:15:58.248Z,40.24
2017-05-06T02:17:08.623Z,40.24
2017-05-06T02:18:19.246Z,40.14
2017-05-06T02:19:29.626Z,40.14
2017-05-06T02:20:39.940Z,40.24
2017-05-06T02:21:49.692Z,40.24
2017-05-06T02:23:00.070Z,40.24
2017-05-06T02:24:10.444Z,40.14
2017-05-06T02:25:20.826Z,40.24
2017-05-06T02:26:31.453Z,40.24
2017-05-06T02:27:41.839Z,40.14
2017-05-06T02:28:52.229Z,40.14
2017-05-06T02:30:02.654Z,40.14
2017-05-06T02:31:13.028Z,40.14
2017-05-06T02:32:23.337Z,40.14
2017-05-06T02:33:33.713Z,40.14
2017-05-06T02:34:43.782Z,40.24
2017-05-06T02:35:54.166Z,40.05
2017-05-06T02:37:04.696Z,40.24
2017-05-06T02:38:15.000Z,40.24
2017-05-06T02:39:25.370Z,40.14
2017-05-06T02:40:35.749Z,40.14
2017-05-06T02:41:46.126Z,40.14
2017-05-06T02:42:56.498Z,40.14
2017-05-06T02:44:07.120Z,40.24
2017-05-06T02:45:17.503Z,40.14
2017-05-06T02:46:27.875Z,40.24
2017-05-06T02:47:38.254Z,40.24
2017-05-06T02:48:48.636Z,40.14
2017-05-06T02:49:58.632Z,40.14
2017-05-06T02:51:09.002Z,40.14
2017-05-06T02:52:19.383Z,40.14
2017-05-06T02:53:29.802Z,40.24
2017-05-06T02:54:40.186Z,40.24
2017-05-06T02:55:50.820Z,40.24
2017-05-06T02:57:01.201Z,40.24
2017-05-06T02:58:11.613Z,40.14
2017-05-06T02:59:22.016Z,40.24
2017-05-06T03:00:32.070Z,40.14
2017-05-06T03:01:42.073Z,40.24
2017-05-06T03:02:52.450Z,40.24
2017-05-06T03:04:02.200Z,40.24
2017-05-06T03:05:12.259Z,40.14
2017-05-06T03:06:22.633Z,40.24
2017-05-06T03:07:32.945Z,40.14
2017-05-06T03:08:43.323Z,40.24
2017-05-06T03:09:53.388Z,40.14
2017-05-06T03:11:03.765Z,40.14
2017-05-06T03:12:14.148Z,40.14
2017-05-06T03:13:24.457Z,40.14
2017-05-06T03:14:34.844Z,40.14
2017-05-06T03:15:45.226Z,40.24
2017-05-06T03:16:55.635Z,40.14
2017-05-06T03:18:06.009Z,40.14
2017-05-06T03:19:16.322Z,40.05
2017-05-06T03:20:26.705Z,40.14
2017-05-06T03:21:36.768Z,40.14
2017-05-06T03:22:47.154Z,40.14
2017-05-06T03:23:57.534Z,40.22
2017-05-06T03:25:08.166Z,40.24
2017-05-06T03:26:18.228Z,40.24
2017-05-06T03:27:28.600Z,40.24
2017-05-06T03:28:38.660Z,40.22
2017-05-06T03:29:49.037Z,40.14
2017-05-06T03:30:59.351Z,40.24
2017-05-06T03:32:09.731Z,40.14
2017-05-06T03:33:20.100Z,40.24
2017-05-06T03:34:30.158Z,40.14
2017-05-06T03:35:40.534Z,40.14
2017-05-06T03:36:51.166Z,40.12
2017-05-06T03:38:01.224Z,40.24
2017-05-06T03:39:11.604Z,40.24
2017-05-06T03:40:21.980Z,40.24
2017-05-06T03:41:32.358Z,40.14
2017-05-06T03:42:42.991Z,40.14
2017-05-06T03:43:53.379Z,40.22
2017-05-06T03:45:03.789Z,40.14
2017-05-06T03:46:14.167Z,40.14
2017-05-06T03:47:24.541Z,40.24
2017-05-06T03:48:35.174Z,40.24
2017-05-06T03:49:45.547Z,40.24
2017-05-06T03:50:55.945Z,40.14
2017-05-06T03:52:06.322Z,40.22
2017-05-06T03:53:16.706Z,40.14
2017-05-06T03:54:27.334Z,40.14
2017-05-06T03:55:37.435Z,40.14
2017-05-06T03:56:47.810Z,40.12
2017-05-06T03:57:58.185Z,40.05
2017-05-06T03:59:08.561Z,40.14
2017-05-06T04:00:19.186Z,40.12
2017-05-06T04:01:29.249Z,40.14
2017-05-06T04:02:39.309Z,40.05
2017-05-06T04:03:49.710Z,40.05
2017-05-06T04:05:00.096Z,40.05
2017-05-06T04:06:10.405Z,40.05
2017-05-06T04:07:20.781Z,40.24
2017-05-06T04:08:30.841Z,40.34
2017-05-06T04:09:41.633Z,40.24
2017-05-06T04:10:51.376Z,40.34
2017-05-06T04:12:02.037Z,40.24
2017-05-06T04:13:12.411Z,39.95
2017-05-06T04:14:22.406Z,39.76
2017-05-06T04:15:32.697Z,39.76
2017-05-06T04:16:42.969Z,39.95
2017-05-06T04:17:53.516Z,39.95
2017-05-06T04:19:03.790Z,39.95
2017-05-06T04:20:13.761Z,40.34
2017-05-06T04:21:23.720Z,40.24
2017-05-06T04:22:33.995Z,40.34
2017-05-06T04:23:44.226Z,40.24
2017-05-06T04:24:54.509Z,40.34
2017-05-06T04:26:04.787Z,40.24
2017-05-06T04:27:15.064Z,40.24
2017-05-06T04:28:25.350Z,40.24
2017-05-06T04:29:35.883Z,40.34
2017-05-06T04:30:45.911Z,40.24
2017-05-06T04:31:56.186Z,40.34
2017-05-06T04:33:06.155Z,40.24
2017-05-06T04:34:16.437Z,40.34
2017-05-06T04:35:26.970Z,40.34
2017-05-06T04:36:37.254Z,40.34
2017-05-06T04:37:47.234Z,40.34
2017-05-06T04:38:57.202Z,39.86
2017-05-06T04:40:07.173Z,39.95
2017-05-06T04:41:17.708Z,39.86
2017-05-06T04:42:27.672Z,39.86
2017-05-06T04:43:37.649Z,40.24
2017-05-06T04:44:47.936Z,40.34
2017-05-06T04:45:57.910Z,40.24
2017-05-06T04:47:08.466Z,39.95
2017-05-06T04:48:18.739Z,40.05
2017-05-06T04:49:29.020Z,40.05
2017-05-06T04:50:39.300Z,39.66
2017-05-06T04:51:49.587Z,39.76
2017-05-06T04:52:59.811Z,39.76
2017-05-06T04:54:10.092Z,39.76
2017-05-06T04:55:20.054Z,39.76
2017-05-06T04:56:29.717Z,39.76
2017-05-06T04:57:39.697Z,39.76
2017-05-06T04:58:50.231Z,39.76
2017-05-06T05:00:00.510Z,39.56
2017-05-06T05:01:10.789Z,39.18
2017-05-06T05:02:20.462Z,39.18
2017-05-06T05:03:30.744Z,39.37
2017-05-06T05:04:41.279Z,39.18
2017-05-06T05:05:51.558Z,39.18
2017-05-06T05:07:01.212Z,39.56
2017-05-06T05:08:11.502Z,39.37
2017-05-06T05:09:21.466Z,39.56
2017-05-06T05:10:32.000Z,39.28
2017-05-06T05:11:42.279Z,39.56
2017-05-06T05:12:52.244Z,39.18
2017-05-06T05:14:02.520Z,39.37
2017-05-06T05:15:12.495Z,39.28
2017-05-06T05:16:23.151Z,39.28
2017-05-06T05:17:33.429Z,39.37
2017-05-06T05:18:43.706Z,39.18
2017-05-06T05:19:53.673Z,39.09
2017-05-06T05:21:03.653Z,39.09
2017-05-06T05:22:14.283Z,39.2
2017-05-06T05:23:24.248Z,38.89
2017-05-06T05:24:33.902Z,38.99
2017-05-06T05:25:43.867Z,39.09
2017-05-06T05:26:54.144Z,39.37
2017-05-06T05:28:04.361Z,39.18
2017-05-06T05:29:14.649Z,39.29
2017-05-06T05:30:24.931Z,39.37
2017-05-06T05:31:34.907Z,39.18
2017-05-06T05:32:45.191Z,38.91
2017-05-06T05:33:55.737Z,39.29
2017-05-06T05:35:06.016Z,39.28
2017-05-06T05:36:15.995Z,39.09
2017-05-06T05:37:26.284Z,39.18
2017-05-06T05:38:36.245Z,39.18
2017-05-06T05:39:46.781Z,38.99
2017-05-06T05:40:56.449Z,38.79
2017-05-06T05:42:06.736Z,39.11
2017-05-06T05:43:16.705Z,38.72
2017-05-06T05:44:26.994Z,38.91
2017-05-06T05:45:37.576Z,39.11
2017-05-06T05:46:47.596Z,39.29
2017-05-06T05:47:57.567Z,39.29
2017-05-06T05:49:07.536Z,39.2
2017-05-06T05:50:17.815Z,39.39
2017-05-06T05:51:28.049Z,39.2
2017-05-06T05:52:38.011Z,39.2
2017-05-06T05:53:48.282Z,39.2
2017-05-06T05:54:58.563Z,39.2
2017-05-06T05:56:08.861Z,39.29
2017-05-06T05:57:19.397Z,39.49
2017-05-06T05:58:29.053Z,38.62
2017-05-06T05:59:39.347Z,38.33
2017-05-06T06:00:49.632Z,38.53
2017-05-06T06:02:00.117Z,38.43
2017-05-06T06:03:10.637Z,38.62
2017-05-06T06:04:20.613Z,38.53
2017-05-06T06:05:30.893Z,38.53
2017-05-06T06:06:41.187Z,38.43
2017-05-06T06:07:51.482Z,38.53
2017-05-06T06:09:02.008Z,38.43
2017-05-06T06:10:11.977Z,38.72
2017-05-06T06:11:22.257Z,38.14
2017-05-06T06:12:32.540Z,38.62
2017-05-06T06:13:42.815Z,38.62
2017-05-06T06:14:53.347Z,38.53
2017-05-06T06:16:03.621Z,38.43
2017-05-06T06:17:13.603Z,38.72
2017-05-06T06:18:23.880Z,38.24
2017-05-06T06:19:34.170Z,38.72
2017-05-06T06:20:44.808Z,38.72
2017-05-06T06:21:55.134Z,38.24
2017-05-06T06:23:05.465Z,38.14
2017-05-06T06:24:15.740Z,38.33
2017-05-06T06:25:26.036Z,38.24
2017-05-06T06:26:36.575Z,38.72
2017-05-06T06:27:46.855Z,38.53
2017-05-06T06:28:57.111Z,38.43
2017-05-06T06:30:07.364Z,38.24
2017-05-06T06:31:17.628Z,38.72
2017-05-06T06:32:27.816Z,38.04
2017-05-06T06:33:38.085Z,38.14
2017-05-06T06:34:48.332Z,38.14
2017-05-06T06:35:58.584Z,38.24
2017-05-06T06:37:08.293Z,38.53
2017-05-06T06:38:18.494Z,38.35
2017-05-06T06:39:28.458Z,38.24
2017-05-06T06:40:38.726Z,38.35
2017-05-06T06:41:49.173Z,38.24
2017-05-06T06:42:59.165Z,38.33
2017-05-06T06:44:09.702Z,38.53
2017-05-06T06:45:19.993Z,38.33
2017-05-06T06:46:30.277Z,38.26
2017-05-06T06:47:40.260Z,38.06
2017-05-06T06:48:50.239Z,38.35
2017-05-06T06:50:00.778Z,38.16
2017-05-06T06:51:11.050Z,38.54
2017-05-06T06:52:21.582Z,38.54
2017-05-06T06:53:31.867Z,38.26
2017-05-06T06:54:41.847Z,38.26
2017-05-06T06:55:52.065Z,38.35
2017-05-06T06:57:02.353Z,38.35
2017-05-06T06:58:12.642Z,38.26
2017-05-06T06:59:22.925Z,38.26
2017-05-06T07:00:33.208Z,38.35
2017-05-06T07:01:43.736Z,38.54
2017-05-06T07:02:53.717Z,38.26
2017-05-06T07:04:03.700Z,38.26
2017-05-06T07:05:13.984Z,38.64
2017-05-06T07:06:24.257Z,38.16
2017-05-06T07:07:34.789Z,38.45
2017-05-06T07:08:45.083Z,38.35
2017-05-06T07:09:55.056Z,38.26
2017-05-06T07:11:05.350Z,38.16
2017-05-06T07:12:15.328Z,38.64
2017-05-06T07:13:25.705Z,38.54
2017-05-06T07:14:35.676Z,38.45
2017-05-06T07:15:45.333Z,38.16
2017-05-06T07:16:54.992Z,38.45
2017-05-06T07:18:05.267Z,38.26
2017-05-06T07:19:15.499Z,38.16
2017-05-06T07:20:25.784Z,38.74
2017-05-06T07:21:36.062Z,38.54
2017-05-06T07:22:46.353Z,38.35
2017-05-06T07:23:56.639Z,38.54
2017-05-06T07:25:06.864Z,38.45
2017-05-06T07:26:16.830Z,38.16
2017-05-06T07:27:27.013Z,38.26
2017-05-06T07:28:37.006Z,38.64
2017-05-06T07:29:47.279Z,38.35
2017-05-06T07:30:57.819Z,38.54
2017-05-06T07:32:08.102Z,38.83
2017-05-06T07:33:18.634Z,38.35
2017-05-06T07:34:28.908Z,38.74
2017-05-06T07:35:39.184Z,38.35
2017-05-06T07:36:49.400Z,38.45
2017-05-06T07:37:59.389Z,38.35
2017-05-06T07:39:09.695Z,38.06
2017-05-06T07:40:19.663Z,38.26
2017-05-06T07:41:29.958Z,38.26
2017-05-06T07:42:40.495Z,38.26
2017-05-06T07:43:50.784Z,38.26
2017-05-06T07:45:01.067Z,38.26
2017-05-06T07:46:11.371Z,38.16
2017-05-06T07:47:21.350Z,38.74
2017-05-06T07:48:31.884Z,38.54
2017-05-06T07:49:42.169Z,38.26
2017-05-06T07:50:52.169Z,38.06
2017-05-06T07:52:02.453Z,38.64
2017-05-06T07:53:12.745Z,38.74
2017-05-06T07:54:23.315Z,38.16
2017-05-06T07:55:33.604Z,38.26
2017-05-06T07:56:43.894Z,38.06
2017-05-06T07:57:54.180Z,38.26
2017-05-06T07:59:04.466Z,38.35
2017-05-06T08:00:15.016Z,38.26
2017-05-06T08:01:25.318Z,38.26
2017-05-06T08:02:35.602Z,38.28
2017-05-06T08:03:45.901Z,38.28
2017-05-06T08:04:56.188Z,38.66
2017-05-06T08:06:06.106Z,38.37
2017-05-06T08:07:16.391Z,38.37
2017-05-06T08:08:26.677Z,38.18
2017-05-06T08:09:36.358Z,38.37
2017-05-06T08:10:46.327Z,38.28
2017-05-06T08:11:56.553Z,38.46
2017-05-06T08:13:06.833Z,38.08
2017-05-06T08:14:17.117Z,38.08
2017-05-06T08:15:27.411Z,38.37
2017-05-06T08:16:37.083Z,38.46
2017-05-06T08:17:47.617Z,38.18
2017-05-06T08:18:57.893Z,38.56
2017-05-06T08:20:07.861Z,38.66
2017-05-06T08:21:18.159Z,37.98
2017-05-06T08:22:28.446Z,38.18
2017-05-06T08:23:39.046Z,38.1
2017-05-06T08:24:49.358Z,38.18
2017-05-06T08:25:59.642Z,37.98
2017-05-06T08:27:09.929Z,38.1
2017-05-06T08:28:20.219Z,38.49
2017-05-06T08:29:30.756Z,38.2
2017-05-06T08:30:41.051Z,38.29
2017-05-06T08:31:51.044Z,38.1
2017-05-06T08:33:01.051Z,38.1
2017-05-06T08:34:11.033Z,38.01
2017-05-06T08:35:21.566Z,38.01
2017-05-06T08:36:31.887Z,38.2
2017-05-06T08:37:41.863Z,38.01
2017-05-06T08:38:51.863Z,37.71
2017-05-06T08:40:01.843Z,37.91
2017-05-06T08:41:12.372Z,37.81
2017-05-06T08:42:22.398Z,37.81
2017-05-06T08:43:32.389Z,37.62
2017-05-06T08:44:42.368Z,37.71
2017-05-06T08:45:52.644Z,37.71
2017-05-06T08:47:03.179Z,37.43
2017-05-06T08:48:13.491Z,37.52
2017-05-06T08:49:23.788Z,37.43
2017-05-06T08:50:33.767Z,37.62
2017-05-06T08:51:43.744Z,37.52
2017-05-06T08:52:54.296Z,37.52
2017-05-06T08:54:03.676Z,37.52
2017-05-06T08:55:13.978Z,37.62
2017-05-06T08:56:23.957Z,37.71
2017-05-06T08:57:34.302Z,37.62
2017-05-06T08:58:44.636Z,37.23
2017-05-06T08:59:54.919Z,37.23
2017-05-06T09:01:04.900Z,37.15
2017-05-06T09:02:15.189Z,37.15
2017-05-06T09:03:25.987Z,37.15
2017-05-06T09:04:36.223Z,37.35
2017-05-06T09:05:46.514Z,37.15
2017-05-06T09:06:56.806Z,37.15
2017-05-06T09:08:07.095Z,37.06
2017-05-06T09:09:17.080Z,36.96
2017-05-06T09:10:27.302Z,36.77
2017-05-06T09:11:37.283Z,36.77
2017-05-06T09:12:47.569Z,36.77
2017-05-06T09:13:57.891Z,36.87
2017-05-06T09:15:08.180Z,36.85
2017-05-06T09:16:18.717Z,36.87
2017-05-06T09:17:29.011Z,36.57
2017-05-06T09:18:38.996Z,36.57
2017-05-06T09:19:49.289Z,36.57
2017-05-06T09:20:59.274Z,36.48
2017-05-06T09:22:09.501Z,36.48
2017-05-06T09:23:19.798Z,36.38
2017-05-06T09:24:30.088Z,36.67
2017-05-06T09:25:40.377Z,36.19
2017-05-06T09:26:50.668Z,36.48
2017-05-06T09:28:01.220Z,36.38
2017-05-06T09:29:11.500Z,36.38
2017-05-06T09:30:21.812Z,36.48
2017-05-06T09:31:32.126Z,36.57
2017-05-06T09:32:42.115Z,36.38
2017-05-06T09:33:52.021Z,36.48
2017-05-06T09:35:02.315Z,36.29
2017-05-06T09:36:12.613Z,36.29
2017-05-06T09:37:22.601Z,36.29
2017-05-06T09:38:32.592Z,36.19
2017-05-06T09:39:42.871Z,36.19
2017-05-06T09:40:53.158Z,36.19
2017-05-06T09:42:03.447Z,35.9
2017-05-06T09:43:13.733Z,36.09
2017-05-06T09:44:24.033Z,35.9
2017-05-06T09:45:34.634Z,35.9
2017-05-06T09:46:44.618Z,36
2017-05-06T09:47:54.905Z,35.9
2017-05-06T09:49:05.235Z,36.09
2017-05-06T09:50:15.527Z,35.8
2017-05-06T09:51:25.763Z,35.61
2017-05-06T09:52:35.454Z,35.71
2017-05-06T09:53:45.436Z,35.42
2017-05-06T09:54:55.720Z,35.42
2017-05-06T09:56:06.011Z,35.32
2017-05-06T09:57:16.555Z,35.52
2017-05-06T09:58:26.842Z,35.42
2017-05-06T09:59:36.816Z,35.52
2017-05-06T10:00:47.134Z,35.13
2017-05-06T10:01:57.423Z,35.22
2017-05-06T10:03:07.344Z,35.13
2017-05-06T10:04:17.781Z,35.13
2017-05-06T10:05:27.763Z,35.22
2017-05-06T10:06:37.748Z,35.13
2017-05-06T10:07:48.041Z,35.22
2017-05-06T10:08:57.742Z,35.13
2017-05-06T10:10:08.045Z,34.74
2017-05-06T10:11:18.335Z,35.32
2017-05-06T10:12:28.630Z,35.22
2017-05-06T10:13:38.930Z,34.84
2017-05-06T10:14:49.474Z,34.74
2017-05-06T10:15:59.767Z,34.74
2017-05-06T10:17:09.785Z,34.84
2017-05-06T10:18:20.094Z,34.55
2017-05-06T10:19:30.084Z,34.64
2017-05-06T10:20:40.642Z,34.45
2017-05-06T10:21:50.632Z,34.45
2017-05-06T10:23:00.926Z,34.26
2017-05-06T10:24:10.909Z,34.45
2017-05-06T10:25:20.898Z,34.55
2017-05-06T10:26:31.424Z,34.36
2017-05-06T10:27:41.713Z,34.16
2017-05-06T10:28:52.007Z,34.26
2017-05-06T10:30:02.317Z,34.06
2017-05-06T10:31:12.613Z,34.06
2017-05-06T10:32:23.152Z,34.16
2017-05-06T10:33:33.438Z,34.26
2017-05-06T10:34:43.442Z,34.06
2017-05-06T10:35:53.739Z,34.26
2017-05-06T10:37:03.724Z,34.26
2017-05-06T10:38:14.259Z,34.45
2017-05-06T10:39:24.227Z,34.36
2017-05-06T10:40:34.516Z,34.26
2017-05-06T10:41:44.503Z,34.26
2017-05-06T10:42:54.791Z,34.26
2017-05-06T10:44:05.328Z,34.36
2017-05-06T10:45:14.991Z,34.36
2017-05-06T10:46:25.306Z,34.36
2017-05-06T10:47:35.591Z,34.36
2017-05-06T10:48:45.574Z,34.45
2017-05-06T10:49:56.114Z,34.55
2017-05-06T10:51:06.433Z,34.36
2017-05-06T10:52:16.418Z,34.26
2017-05-06T10:53:26.711Z,34.16
2017-05-06T10:54:36.682Z,34.16
2017-05-06T10:55:47.228Z,34.16
2017-05-06T10:56:57.533Z,33.87
2017-05-06T10:58:07.824Z,33.87
2017-05-06T10:59:17.807Z,33.97
2017-05-06T11:00:27.804Z,33.87
2017-05-06T11:01:38.046Z,33.78
2017-05-06T11:02:48.337Z,34.26
2017-05-06T11:03:58.318Z,33.78
2017-05-06T11:05:08.614Z,33.78
2017-05-06T11:06:18.915Z,33.78
2017-05-06T11:07:29.468Z,33.97
2017-05-06T11:08:39.773Z,33.97
2017-05-06T11:09:49.751Z,34.06
2017-05-06T11:10:59.745Z,33.97
2017-05-06T11:12:09.420Z,33.97
2017-05-06T11:13:19.963Z,34.06
2017-05-06T11:14:30.049Z,33.95
2017-05-06T11:15:40.025Z,34.06
2017-05-06T11:16:50.320Z,33.97
2017-05-06T11:18:00.628Z,33.87
2017-05-06T11:19:11.171Z,33.78
2017-05-06T11:20:21.158Z,33.78
2017-05-06T11:21:31.132Z,33.86
2017-05-06T11:22:41.421Z,33.87
2017-05-06T11:23:51.723Z,33.97
2017-05-06T11:25:01.983Z,33.78
2017-05-06T11:26:12.267Z,34.36
2017-05-06T11:27:22.705Z,33.76
2017-05-06T11:28:32.995Z,34.26
2017-05-06T11:29:42.967Z,34.24
2017-05-06T11:30:52.892Z,33.66
2017-05-06T11:32:02.865Z,33.86
2017-05-06T11:33:13.160Z,33.76
2017-05-06T11:34:23.446Z,33.86
2017-05-06T11:35:33.746Z,33.86
2017-05-06T11:36:44.281Z,33.95
2017-05-06T11:37:54.558Z,33.95
2017-05-06T11:39:04.851Z,33.95
2017-05-06T11:40:15.157Z,33.95
2017-05-06T11:41:25.451Z,33.95
2017-05-06T11:42:36.008Z,34.05
2017-05-06T11:43:46.529Z,34.05
2017-05-06T11:44:56.846Z,33.95
2017-05-06T11:46:07.135Z,34.05
2017-05-06T11:47:17.474Z,33.95
2017-05-06T11:48:28.009Z,33.68
2017-05-06T11:49:38.287Z,33.58
2017-05-06T11:50:48.265Z,33.39
2017-05-06T11:51:57.918Z,33.39
2017-05-06T11:53:08.211Z,33.09
2017-05-06T11:54:18.436Z,33.29
2017-05-06T11:55:28.721Z,33.1
2017-05-06T11:56:39.013Z,33.29
2017-05-06T11:57:49.321Z,33.1
2017-05-06T11:58:59.608Z,33.1
2017-05-06T12:00:10.153Z,33.1
2017-05-06T12:01:20.143Z,33.1
2017-05-06T12:02:30.425Z,33.39
2017-05-06T12:03:40.712Z,33.2
2017-05-06T12:04:50.687Z,33.1
2017-05-06T12:06:01.225Z,33.48
2017-05-06T12:07:11.222Z,33.1
2017-05-06T12:08:21.511Z,33.2
2017-05-06T12:09:31.805Z,33.2
2017-05-06T12:10:41.778Z,33.39
2017-05-06T12:11:52.324Z,33.29
2017-05-06T12:13:02.615Z,33.29
2017-05-06T12:14:12.927Z,33.39
2017-05-06T12:15:22.910Z,33.29
2017-05-06T12:16:33.197Z,33.48
2017-05-06T12:17:43.734Z,33.39
2017-05-06T12:18:54.032Z,33.58
2017-05-06T12:20:03.410Z,33.29
2017-05-06T12:21:13.384Z,33.48
2017-05-06T12:22:23.675Z,33
2017-05-06T12:23:34.221Z,33.1
2017-05-06T12:24:44.522Z,33.1
2017-05-06T12:25:54.847Z,33.39
2017-05-06T12:27:05.171Z,33.48
2017-05-06T12:28:15.475Z,33.39
2017-05-06T12:29:25.699Z,33.1
2017-05-06T12:30:35.683Z,33
2017-05-06T12:31:45.970Z,33.29
2017-05-06T12:32:55.965Z,33.2
2017-05-06T12:34:06.278Z,33.1
2017-05-06T12:35:16.815Z,33.29
2017-05-06T12:36:27.105Z,33.2
2017-05-06T12:37:37.384Z,33.2
2017-05-06T12:38:47.686Z,33
2017-05-06T12:39:57.652Z,33
2017-05-06T12:41:08.214Z,33
2017-05-06T12:42:18.514Z,33.1
2017-05-06T12:43:28.806Z,32.91
2017-05-06T12:44:39.098Z,33
2017-05-06T12:45:49.379Z,33
2017-05-06T12:46:59.932Z,33
2017-05-06T12:48:10.219Z,33.1
2017-05-06T12:49:20.196Z,33
2017-05-06T12:50:30.478Z,33.12
2017-05-06T12:51:40.787Z,33.29
2017-05-06T12:52:51.074Z,33.22
2017-05-06T12:54:01.367Z,33.29
2017-05-06T12:55:11.343Z,33.58
2017-05-06T12:56:21.321Z,33.39
2017-05-06T12:57:31.301Z,33.6
2017-05-06T12:58:41.942Z,33.29
2017-05-06T12:59:52.244Z,33.29
2017-05-06T13:01:02.225Z,33.39
2017-05-06T13:02:12.198Z,33.48
2017-05-06T13:03:22.516Z,33.39
2017-05-06T13:04:33.248Z,33.39
2017-05-06T13:05:43.542Z,33.2
2017-05-06T13:06:53.836Z,33.1
2017-05-06T13:08:04.129Z,33.2
2017-05-06T13:09:14.413Z,33.29
2017-05-06T13:10:24.957Z,33.39
2017-05-06T13:11:35.258Z,33.1
2017-05-06T13:12:45.554Z,33.29
2017-05-06T13:13:55.853Z,33
2017-05-06T13:15:06.152Z,33.1
2017-05-06T13:16:16.719Z,33.1
2017-05-06T13:17:27.018Z,33.2
2017-05-06T13:18:37.303Z,33
2017-05-06T13:19:47.591Z,32.91
2017-05-06T13:20:57.890Z,32.91
2017-05-06T13:22:08.447Z,32.91
2017-05-06T13:23:18.755Z,32.81
2017-05-06T13:24:29.046Z,33
2017-05-06T13:25:39.397Z,32.91
2017-05-06T13:26:49.735Z,32.91
2017-05-06T13:28:00.312Z,32.81
2017-05-06T13:29:10.610Z,32.81
2017-05-06T13:30:20.695Z,32.91
2017-05-06T13:31:30.988Z,32.81
2017-05-06T13:32:41.280Z,32.81
2017-05-06T13:33:51.807Z,32.81
2017-05-06T13:35:01.590Z,32.71
2017-05-06T13:36:11.897Z,32.71
2017-05-06T13:37:22.187Z,33
2017-05-06T13:38:32.489Z,32.81
2017-05-06T13:39:43.025Z,32.71
2017-05-06T13:40:53.344Z,33
2017-05-06T13:42:03.639Z,32.73
2017-05-06T13:43:13.939Z,32.71
2017-05-06T13:44:24.221Z,32.81
2017-05-06T13:45:34.764Z,32.81
2017-05-06T13:46:45.063Z,32.91
2017-05-06T13:47:55.352Z,33.02
2017-05-06T13:49:05.328Z,32.73
2017-05-06T13:50:15.630Z,32.71
2017-05-06T13:51:26.167Z,32.71
2017-05-06T13:52:36.455Z,32.91
2017-05-06T13:53:46.450Z,33
2017-05-06T13:54:56.752Z,32.91
2017-05-06T13:56:07.040Z,33.02
2017-05-06T13:57:17.597Z,33.1
2017-05-06T13:58:27.933Z,33
2017-05-06T13:59:38.242Z,32.91
2017-05-06T14:00:48.542Z,33
2017-05-06T14:01:58.537Z,33.1
2017-05-06T14:03:09.093Z,32.91
2017-05-06T14:04:19.391Z,33.2
2017-05-06T14:05:29.678Z,32.91
2017-05-06T14:06:39.976Z,33.1
2017-05-06T14:07:50.258Z,33.02
2017-05-06T14:09:00.498Z,33.1
2017-05-06T14:10:10.796Z,33.2
2017-05-06T14:11:21.091Z,33
2017-05-06T14:12:31.393Z,32.91
2017-05-06T14:13:41.677Z,33
2017-05-06T14:14:52.232Z,32.81
2017-05-06T14:16:02.209Z,32.73
2017-05-06T14:17:12.495Z,33.02
2017-05-06T14:18:22.463Z,32.71
2017-05-06T14:19:32.445Z,32.71
2017-05-06T14:20:42.734Z,32.71
2017-05-06T14:21:53.027Z,32.71
2017-05-06T14:23:03.154Z,32.81
2017-05-06T14:24:13.465Z,32.71
2017-05-06T14:25:23.550Z,32.91
2017-05-06T14:26:34.121Z,32.81
2017-05-06T14:27:44.421Z,32.91
2017-05-06T14:28:54.717Z,32.91
2017-05-06T14:30:05.008Z,32.54
2017-05-06T14:31:15.292Z,32.73
2017-05-06T14:32:25.851Z,32.91
2017-05-06T14:33:36.133Z,32.71
2017-05-06T14:34:46.428Z,33
2017-05-06T14:35:56.726Z,32.71
2017-05-06T14:37:07.014Z,32.71
2017-05-06T14:38:17.549Z,32.62
2017-05-06T14:39:27.834Z,32.81
2017-05-06T14:40:38.348Z,32.91
2017-05-06T14:41:48.655Z,32.82
2017-05-06T14:42:58.641Z,33
2017-05-06T14:44:08.880Z,32.91
2017-05-06T14:45:18.243Z,32.91
2017-05-06T14:46:27.953Z,33.1
2017-05-06T14:47:38.247Z,33.2
2017-05-06T14:48:48.526Z,33
2017-05-06T14:49:59.066Z,33.1
2017-05-06T14:51:09.088Z,33.2
2017-05-06T14:52:19.378Z,33.39
2017-05-06T14:53:29.668Z,33.2
2017-05-06T14:54:39.650Z,33
2017-05-06T14:55:49.876Z,33
2017-05-06T14:57:00.161Z,33.1
2017-05-06T14:58:10.146Z,33.2
2017-05-06T14:59:20.430Z,33.39
2017-05-06T15:00:30.402Z,33.2
2017-05-06T15:01:40.933Z,33.1
2017-05-06T15:02:51.236Z,33.2
2017-05-06T15:04:01.529Z,33.39
2017-05-06T15:05:11.812Z,33.2
2017-05-06T15:06:21.470Z,33.2
2017-05-06T15:07:32.012Z,33.39
2017-05-06T15:08:42.314Z,33.29
2017-05-06T15:09:52.608Z,33.2
2017-05-06T15:11:02.274Z,33.37